sensor_id;sensor_type;location;lat;lon;timestamp;pressure;altitude;pressure_sealevel;temperature;humidity
30875;BME280;17581;43.222;27.924;2023-02-11T00:01:12;102724.97;;;-1.05;53.90
30875;BME280;17581;43.222;27.924;2023-02-11T00:03:41;102679.22;;;-1.32;54.16
30875;BME280;17581;43.222;27.924;2023-02-11T00:06:07;102767.22;;;-0.99;54.92
30875;BME280;17581;43.222;27.924;2023-02-11T00:08:36;102761.94;;;-1.05;55.04
30875;BME280;17581;43.222;27.924;2023-02-11T00:11:01;102764.56;;;-0.99;55.03
30875;BME280;17581;43.222;27.924;2023-02-11T00:13:27;102762.78;;;-1.19;55.54
30875;BME280;17581;43.222;27.924;2023-02-11T00:15:53;102723.19;;;-1.28;55.36
30875;BME280;17581;43.222;27.924;2023-02-11T00:18:19;102760.16;;;-0.90;55.01
30875;BME280;17581;43.222;27.924;2023-02-11T00:20:45;102751.34;;;-0.84;54.72
30875;BME280;17581;43.222;27.924;2023-02-11T00:23:10;102746.94;;;-0.88;55.05
30875;BME280;17581;43.222;27.924;2023-02-11T00:25:40;102754.03;;;-0.95;54.79
30875;BME280;17581;43.222;27.924;2023-02-11T00:28:06;102752.22;;;-0.91;54.94
30875;BME280;17581;43.222;27.924;2023-02-11T00:30:31;102742.56;;;-0.77;54.98
30875;BME280;17581;43.222;27.924;2023-02-11T00:32:57;102741.66;;;-0.73;54.93
30875;BME280;17581;43.222;27.924;2023-02-11T00:35:22;102739.00;;;-0.67;54.61
30875;BME280;17581;43.222;27.924;2023-02-11T00:37:48;102735.50;;;-0.87;54.72
30875;BME280;17581;43.222;27.924;2023-02-11T00:40:13;102746.94;;;-0.79;54.63
30875;BME280;17581;43.222;27.924;2023-02-11T00:42:41;102739.03;;;-0.82;54.68
30875;BME280;17581;43.222;27.924;2023-02-11T00:45:07;102750.47;;;-0.74;54.52
30875;BME280;17581;43.222;27.924;2023-02-11T00:47:34;102712.59;;;-0.82;54.13
30875;BME280;17581;43.222;27.924;2023-02-11T00:50:00;102747.81;;;-0.65;53.95
30875;BME280;17581;43.222;27.924;2023-02-11T00:52:26;102739.91;;;-0.71;53.80
30875;BME280;17581;43.222;27.924;2023-02-11T00:54:51;102742.56;;;-0.86;54.24
30875;BME280;17581;43.222;27.924;2023-02-11T00:57:17;102740.81;;;-0.93;54.21
30875;BME280;17581;43.222;27.924;2023-02-11T00:59:42;102746.06;;;-0.78;54.63
30875;BME280;17581;43.222;27.924;2023-02-11T01:02:08;102744.31;;;-0.79;54.50
30875;BME280;17581;43.222;27.924;2023-02-11T01:04:33;102744.28;;;-0.66;54.47
30875;BME280;17581;43.222;27.924;2023-02-11T01:06:58;102738.13;;;-0.60;54.34
30875;BME280;17581;43.222;27.924;2023-02-11T01:09:24;102737.25;;;-0.62;54.33
30875;BME280;17581;43.222;27.924;2023-02-11T01:11:49;102680.06;;;-1.05;53.74
30875;BME280;17581;43.222;27.924;2023-02-11T01:14:15;102717.91;;;-0.94;54.38
30875;BME280;17581;43.222;27.924;2023-02-11T01:16:40;102722.31;;;-0.83;54.49
30875;BME280;17581;43.222;27.924;2023-02-11T01:19:05;102709.09;;;-0.93;54.42
30875;BME280;17581;43.222;27.924;2023-02-11T01:21:31;102714.41;;;-0.96;54.49
30875;BME280;17581;43.222;27.924;2023-02-11T01:23:56;102717.91;;;-0.88;54.57
30875;BME280;17581;43.222;27.924;2023-02-11T01:26:22;102714.38;;;-0.81;54.91
30875;BME280;17581;43.222;27.924;2023-02-11T01:28:47;102723.16;;;-0.82;55.30
30875;BME280;17581;43.222;27.924;2023-02-11T01:31:13;102715.25;;;-0.82;55.27
30875;BME280;17581;43.222;27.924;2023-02-11T01:33:39;102704.72;;;-0.93;55.00
30875;BME280;17581;43.222;27.924;2023-02-11T01:36:05;102710.88;;;-0.89;55.08
30875;BME280;17581;43.222;27.924;2023-02-11T01:38:32;102686.22;;;-1.00;55.24
30875;BME280;17581;43.222;27.924;2023-02-11T01:41:05;102711.75;;;-0.84;55.17
30875;BME280;17581;43.222;27.924;2023-02-11T01:43:34;102717.03;;;-0.87;55.62
30875;BME280;17581;43.222;27.924;2023-02-11T01:46:27;102719.66;;;-0.90;55.05
30875;BME280;17581;43.222;27.924;2023-02-11T01:49:12;102702.06;;;-1.06;55.24
30875;BME280;17581;43.222;27.924;2023-02-11T01:52:03;102714.41;;;-0.96;55.30
30875;BME280;17581;43.222;27.924;2023-02-11T01:54:33;102711.75;;;-0.93;54.85
30875;BME280;17581;43.222;27.924;2023-02-11T01:57:22;102668.66;;;-1.20;55.42
30875;BME280;17581;43.222;27.924;2023-02-11T01:59:59;102714.38;;;-0.90;55.36
30875;BME280;17581;43.222;27.924;2023-02-11T02:10:24;102695.91;;;-0.80;54.70
30875;BME280;17581;43.222;27.924;2023-02-11T02:12:50;102690.59;;;-0.77;54.95
30875;BME280;17581;43.222;27.924;2023-02-11T02:15:35;102707.31;;;-0.75;55.06
30875;BME280;17581;43.222;27.924;2023-02-11T02:23:37;102719.66;;;-0.90;55.21
30875;BME280;17581;43.222;27.924;2023-02-11T02:43:28;102683.59;;;-1.10;55.28
30875;BME280;17581;43.222;27.924;2023-02-11T02:45:55;102717.88;;;-0.85;55.40
30875;BME280;17581;43.222;27.924;2023-02-11T02:48:31;102703.81;;;-0.87;55.20
30875;BME280;17581;43.222;27.924;2023-02-11T02:56:34;102695.91;;;-0.87;55.21
30875;BME280;17581;43.222;27.924;2023-02-11T03:09:46;102717.91;;;-0.91;55.10
30875;BME280;17581;43.222;27.924;2023-02-11T03:12:14;102714.41;;;-0.96;55.33
30875;BME280;17581;43.222;27.924;2023-02-11T03:14:40;102670.41;;;-1.28;55.19
30875;BME280;17581;43.222;27.924;2023-02-11T03:17:07;102712.63;;;-0.97;55.28
30875;BME280;17581;43.222;27.924;2023-02-11T03:19:37;102710.00;;;-0.93;55.63
30875;BME280;17581;43.222;27.924;2023-02-11T03:22:07;102712.63;;;-1.00;55.41
30875;BME280;17581;43.222;27.924;2023-02-11T03:24:37;102707.34;;;-1.00;55.23
30875;BME280;17581;43.222;27.924;2023-02-11T03:27:17;102729.34;;;-1.21;54.91
30875;BME280;17581;43.222;27.924;2023-02-11T03:32:35;102717.88;;;-1.66;56.69
30875;BME280;17581;43.222;27.924;2023-02-11T03:37:54;102696.75;;;-1.64;56.24
30875;BME280;17581;43.222;27.924;2023-02-11T03:40:27;102703.78;;;-1.65;56.53
30875;BME280;17581;43.222;27.924;2023-02-11T03:42:56;102711.72;;;-1.66;56.48
30875;BME280;17581;43.222;27.924;2023-02-11T03:45:23;102667.69;;;-1.96;56.65
30875;BME280;17581;43.222;27.924;2023-02-11T03:47:55;102712.53;;;-1.85;56.71
30875;BME280;17581;43.222;27.924;2023-02-11T03:50:22;102671.06;;;-2.36;57.62
30875;BME280;17581;43.222;27.924;2023-02-11T03:52:49;102696.63;;;-2.15;57.39
30875;BME280;17581;43.222;27.924;2023-02-11T03:55:18;102708.06;;;-2.01;57.59
30875;BME280;17581;43.222;27.924;2023-02-11T03:57:44;102690.50;;;-2.08;57.66
30875;BME280;17581;43.222;27.924;2023-02-11T04:00:10;102702.88;;;-1.88;57.62
30875;BME280;17581;43.222;27.924;2023-02-11T04:02:37;102699.38;;;-1.78;57.66
30875;BME280;17581;43.222;27.924;2023-02-11T04:05:04;102709.94;;;-1.72;56.95
30875;BME280;17581;43.222;27.924;2023-02-11T04:07:31;102694.91;;;-1.95;57.16
30875;BME280;17581;43.222;27.924;2023-02-11T04:09:56;102709.03;;;-1.87;57.09
30875;BME280;17581;43.222;27.924;2023-02-11T04:12:22;102642.13;;;-2.13;57.25
30875;BME280;17581;43.222;27.924;2023-02-11T04:14:47;102695.88;;;-1.78;57.12
30875;BME280;17581;43.222;27.924;2023-02-11T04:17:13;102695.00;;;-1.62;56.98
30875;BME280;17581;43.222;27.924;2023-02-11T04:19:38;102695.00;;;-1.62;56.87
30875;BME280;17581;43.222;27.924;2023-02-11T04:22:04;102698.53;;;-1.58;56.75
30875;BME280;17581;43.222;27.924;2023-02-11T04:24:29;102694.91;;;-1.98;56.73
30875;BME280;17581;43.222;27.924;2023-02-11T04:26:55;102696.66;;;-2.03;57.45
30875;BME280;17581;43.222;27.924;2023-02-11T04:29:21;102692.22;;;-2.15;57.58
30875;BME280;17581;43.222;27.924;2023-02-11T04:31:46;102692.06;;;-2.51;57.84
30875;BME280;17581;43.222;27.924;2023-02-11T04:34:12;102641.00;;;-2.79;58.85
30875;BME280;17581;43.222;27.924;2023-02-11T04:36:37;102684.13;;;-2.56;59.34
30875;BME280;17581;43.222;27.924;2023-02-11T04:39:03;102689.41;;;-2.53;59.01
30875;BME280;17581;43.222;27.924;2023-02-11T04:41:29;102675.41;;;-2.49;58.54
30875;BME280;17581;43.222;27.924;2023-02-11T04:43:54;102678.06;;;-2.41;58.73
30875;BME280;17581;43.222;27.924;2023-02-11T04:46:20;102684.22;;;-2.38;58.54
30875;BME280;17581;43.222;27.924;2023-02-11T04:48:45;102678.09;;;-2.34;58.76
30875;BME280;17581;43.222;27.924;2023-02-11T04:51:11;102671.97;;;-2.28;58.20
30875;BME280;17581;43.222;27.924;2023-02-11T04:53:36;102670.19;;;-2.32;57.95
30875;BME280;17581;43.222;27.924;2023-02-11T04:56:02;102641.97;;;-2.62;58.64
30875;BME280;17581;43.222;27.924;2023-02-11T04:58:27;102625.88;;;-3.12;59.17
30875;BME280;17581;43.222;27.924;2023-02-11T05:00:53;102671.69;;;-2.86;59.97
30875;BME280;17581;43.222;27.924;2023-02-11T05:03:18;102685.88;;;-2.56;59.11
30875;BME280;17581;43.222;27.924;2023-02-11T05:05:43;102685.06;;;-2.49;59.22
30875;BME280;17581;43.222;27.924;2023-02-11T05:08:10;102678.91;;;-2.50;59.00
30875;BME280;17581;43.222;27.924;2023-02-11T05:10:35;102631.41;;;-2.65;58.58
30875;BME280;17581;43.222;27.924;2023-02-11T05:13:01;102635.88;;;-2.49;58.43
30875;BME280;17581;43.222;27.924;2023-02-11T05:15:26;102658.81;;;-2.24;58.12
30875;BME280;17581;43.222;27.924;2023-02-11T05:17:53;102681.69;;;-2.12;57.92
30875;BME280;17581;43.222;27.924;2023-02-11T05:20:18;102657.94;;;-2.16;57.43
30875;BME280;17581;43.222;27.924;2023-02-11T05:22:44;102664.13;;;-2.04;57.87
30875;BME280;17581;43.222;27.924;2023-02-11T05:25:09;102668.56;;;-1.86;57.21
30875;BME280;17581;43.222;27.924;2023-02-11T05:27:35;102672.97;;;-1.88;57.13
30875;BME280;17581;43.222;27.924;2023-02-11T05:30:00;102673.72;;;-2.29;57.41
30875;BME280;17581;43.222;27.924;2023-02-11T05:32:26;102681.59;;;-2.39;58.15
30875;BME280;17581;43.222;27.924;2023-02-11T05:34:51;102671.13;;;-2.16;58.09
30875;BME280;17581;43.222;27.924;2023-02-11T05:37:18;102679.03;;;-2.13;57.99
30875;BME280;17581;43.222;27.924;2023-02-11T05:39:43;102653.53;;;-2.30;57.50
30875;BME280;17581;43.222;27.924;2023-02-11T05:42:09;102660.63;;;-2.06;57.57
30875;BME280;17581;43.222;27.924;2023-02-11T05:44:34;102669.44;;;-1.92;57.38
30875;BME280;17581;43.222;27.924;2023-02-11T05:47:00;102632.53;;;-1.99;57.35
30875;BME280;17581;43.222;27.924;2023-02-11T05:49:25;102674.75;;;-1.71;57.13
30875;BME280;17581;43.222;27.924;2023-02-11T05:51:51;102680.91;;;-1.76;56.93
30875;BME280;17581;43.222;27.924;2023-02-11T05:54:16;102690.59;;;-1.65;56.57
30875;BME280;17581;43.222;27.924;2023-02-11T05:56:42;102671.25;;;-1.63;56.56
30875;BME280;17581;43.222;27.924;2023-02-11T05:59:08;102668.63;;;-1.59;56.83
30875;BME280;17581;43.222;27.924;2023-02-11T06:01:33;102692.41;;;-1.36;56.49
30875;BME280;17581;43.222;27.924;2023-02-11T06:03:59;102675.66;;;-1.43;56.19
30875;BME280;17581;43.222;27.924;2023-02-11T06:06:24;102685.34;;;-1.22;55.81
30875;BME280;17581;43.222;27.924;2023-02-11T06:08:50;102683.59;;;-1.16;55.92
30875;BME280;17581;43.222;27.924;2023-02-11T06:11:16;102686.25;;;-1.05;55.86
30875;BME280;17581;43.222;27.924;2023-02-11T06:13:42;102684.47;;;-0.98;55.34
30875;BME280;17581;43.222;27.924;2023-02-11T06:16:07;102677.44;;;-0.95;55.18
30875;BME280;17581;43.222;27.924;2023-02-11T06:18:33;102687.09;;;-0.83;54.81
30875;BME280;17581;43.222;27.924;2023-02-11T06:20:59;102690.59;;;-0.75;54.14
30875;BME280;17581;43.222;27.924;2023-02-11T06:23:24;102687.94;;;-0.66;54.22
30875;BME280;17581;43.222;27.924;2023-02-11T06:25:51;102679.16;;;-0.77;53.88
30875;BME280;17581;43.222;27.924;2023-02-11T06:28:16;102659.78;;;-0.82;54.08
30875;BME280;17581;43.222;27.924;2023-02-11T06:30:42;102674.72;;;-0.72;54.20
30875;BME280;17581;43.222;27.924;2023-02-11T06:33:07;102677.38;;;-0.71;54.46
30875;BME280;17581;43.222;27.924;2023-02-11T06:35:33;102646.56;;;-0.85;53.97
30875;BME280;17581;43.222;27.924;2023-02-11T06:38:00;102666.81;;;-0.81;54.31
30875;BME280;17581;43.222;27.924;2023-02-11T06:40:25;102677.38;;;-0.72;53.86
30875;BME280;17581;43.222;27.924;2023-02-11T06:42:51;102675.56;;;-0.64;54.44
30875;BME280;17581;43.222;27.924;2023-02-11T06:45:17;102670.34;;;-0.79;54.19
30875;BME280;17581;43.222;27.924;2023-02-11T06:47:42;102677.38;;;-0.69;54.53
30875;BME280;17581;43.222;27.924;2023-02-11T06:50:11;102675.59;;;-0.63;54.55
30875;BME280;17581;43.222;27.924;2023-02-11T06:52:37;102677.34;;;-0.63;54.48
30875;BME280;17581;43.222;27.924;2023-02-11T06:55:02;102619.31;;;-0.90;54.64
30875;BME280;17581;43.222;27.924;2023-02-11T06:57:29;102628.06;;;-0.75;53.88
30875;BME280;17581;43.222;27.924;2023-02-11T06:59:55;102673.78;;;-0.44;54.06
30875;BME280;17581;43.222;27.924;2023-02-11T07:02:20;102690.50;;;-0.34;53.51
30875;BME280;17581;43.222;27.924;2023-02-11T07:04:45;102679.94;;;-0.40;53.72
30875;BME280;17581;43.222;27.924;2023-02-11T07:07:11;102663.19;;;-0.44;53.87
30875;BME280;17581;43.222;27.924;2023-02-11T07:09:36;102664.97;;;-0.55;53.76
30875;BME280;17581;43.222;27.924;2023-02-11T07:12:02;102663.25;;;-0.56;54.27
30875;BME280;17581;43.222;27.924;2023-02-11T07:14:27;102672.03;;;-0.57;54.48
30875;BME280;17581;43.222;27.924;2023-02-11T07:16:53;102667.59;;;-0.44;54.73
30875;BME280;17581;43.222;27.924;2023-02-11T07:19:18;102653.50;;;-0.43;55.03
30875;BME280;17581;43.222;27.924;2023-02-11T07:21:43;102652.63;;;-0.44;54.51
30875;BME280;17581;43.222;27.924;2023-02-11T07:24:09;102656.16;;;-0.45;54.58
30875;BME280;17581;43.222;27.924;2023-02-11T07:26:35;102649.09;;;-0.44;55.13
30875;BME280;17581;43.222;27.924;2023-02-11T07:29:00;102633.28;;;-0.49;54.82
30875;BME280;17581;43.222;27.924;2023-02-11T07:31:27;102665.78;;;-0.26;54.81
30875;BME280;17581;43.222;27.924;2023-02-11T07:33:55;102649.00;;;-0.19;54.81
30875;BME280;17581;43.222;27.924;2023-02-11T07:36:22;102595.38;;;-0.46;53.92
30875;BME280;17581;43.222;27.924;2023-02-11T07:38:47;102636.63;;;-0.15;54.42
30875;BME280;17581;43.222;27.924;2023-02-11T07:41:15;102639.28;;;-0.18;54.20
30875;BME280;17581;43.222;27.924;2023-02-11T07:43:41;102605.81;;;-0.22;54.46
30875;BME280;17581;43.222;27.924;2023-02-11T07:46:19;102640.91;;;0.04;54.20
30875;BME280;17581;43.222;27.924;2023-02-11T07:48:45;102630.31;;;0.07;54.21
30875;BME280;17581;43.222;27.924;2023-02-11T07:53:40;102633.03;;;-0.01;54.24
30875;BME280;17581;43.222;27.924;2023-02-11T07:56:07;102633.06;;;-0.07;55.22
30875;BME280;17581;43.222;27.924;2023-02-11T07:58:33;102572.38;;;-0.28;54.70
30875;BME280;17581;43.222;27.924;2023-02-11T08:01:03;102614.56;;;-0.11;55.08
30875;BME280;17581;43.222;27.924;2023-02-11T08:03:30;102621.59;;;-0.04;55.56
30875;BME280;17581;43.222;27.924;2023-02-11T08:05:55;102617.06;;;0.15;55.90
30875;BME280;17581;43.222;27.924;2023-02-11T08:08:21;102601.13;;;0.22;55.80
30875;BME280;17581;43.222;27.924;2023-02-11T08:10:46;102618.59;;;0.43;55.34
30875;BME280;17581;43.222;27.924;2023-02-11T08:13:12;102610.56;;;0.53;55.39
30875;BME280;17581;43.222;27.924;2023-02-11T08:15:37;102604.31;;;0.62;54.63
30875;BME280;17581;43.222;27.924;2023-02-11T08:18:02;102563.81;;;0.54;54.85
30875;BME280;17581;43.222;27.924;2023-02-11T08:20:28;102604.97;;;0.88;54.52
30875;BME280;17581;43.222;27.924;2023-02-11T08:22:53;102579.34;;;0.87;54.44
30875;BME280;17581;43.222;27.924;2023-02-11T08:25:19;102609.91;;;1.20;53.87
30875;BME280;17581;43.222;27.924;2023-02-11T08:27:44;102613.22;;;1.39;53.10
30875;BME280;17581;43.222;27.924;2023-02-11T08:30:10;102527.78;;;1.19;52.94
30875;BME280;17581;43.222;27.924;2023-02-11T08:32:36;102555.53;;;1.59;51.78
30875;BME280;17581;43.222;27.924;2023-02-11T08:35:04;102597.50;;;1.92;50.87
30875;BME280;17581;43.222;27.924;2023-02-11T08:37:32;102586.81;;;1.98;50.47
30875;BME280;17581;43.222;27.924;2023-02-11T08:39:57;102583.00;;;2.14;50.38
30875;BME280;17581;43.222;27.924;2023-02-11T08:42:22;102587.84;;;2.42;49.97
30875;BME280;17581;43.222;27.924;2023-02-11T08:44:48;102578.06;;;2.45;49.69
30875;BME280;17581;43.222;27.924;2023-02-11T08:47:13;102582.84;;;2.75;49.88
30875;BME280;17581;43.222;27.924;2023-02-11T08:49:39;102534.97;;;2.79;49.10
30875;BME280;17581;43.222;27.924;2023-02-11T08:52:07;102575.81;;;3.20;48.35
30875;BME280;17581;43.222;27.924;2023-02-11T08:54:32;102540.38;;;3.18;48.22
30875;BME280;17581;43.222;27.924;2023-02-11T08:56:58;102547.19;;;3.32;47.98
30875;BME280;17581;43.222;27.924;2023-02-11T08:59:26;102568.03;;;3.53;47.29
30875;BME280;17581;43.222;27.924;2023-02-11T09:01:51;102539.00;;;3.42;47.47
30875;BME280;17581;43.222;27.924;2023-02-11T09:04:17;102562.28;;;3.72;47.45
30875;BME280;17581;43.222;27.924;2023-02-11T09:06:42;102498.56;;;3.65;47.00
30875;BME280;17581;43.222;27.924;2023-02-11T09:09:10;102548.28;;;4.03;46.59
30875;BME280;17581;43.222;27.924;2023-02-11T09:11:37;102550.72;;;4.10;45.81
30875;BME280;17581;43.222;27.924;2023-02-11T09:14:04;102535.28;;;3.89;46.11
30875;BME280;17581;43.222;27.924;2023-02-11T09:16:32;102536.88;;;3.96;46.10
30875;BME280;17581;43.222;27.924;2023-02-11T09:18:59;102539.28;;;4.07;45.92
30875;BME280;17581;43.222;27.924;2023-02-11T09:21:26;102531.03;;;4.17;46.37
30875;BME280;17581;43.222;27.924;2023-02-11T09:23:52;102521.91;;;4.27;45.83
30875;BME280;17581;43.222;27.924;2023-02-11T09:26:20;102519.13;;;4.32;45.94
30875;BME280;17581;43.222;27.924;2023-02-11T09:28:47;102525.91;;;4.45;45.47
30875;BME280;17581;43.222;27.924;2023-02-11T09:31:15;102514.34;;;4.45;45.49
30875;BME280;17581;43.222;27.924;2023-02-11T09:33:43;102520.16;;;4.60;45.59
30875;BME280;17581;43.222;27.924;2023-02-11T09:36:17;102477.22;;;4.38;45.73
30875;BME280;17581;43.222;27.924;2023-02-11T09:38:43;102514.66;;;4.68;45.46
30875;BME280;17581;43.222;27.924;2023-02-11T09:41:53;102505.38;;;4.81;45.04
30875;BME280;17581;43.222;27.924;2023-02-11T09:44:20;102497.22;;;4.87;44.72
30875;BME280;17581;43.222;27.924;2023-02-11T09:46:52;102502.19;;;4.99;44.63
30875;BME280;17581;43.222;27.924;2023-02-11T09:49:20;102508.47;;;4.98;44.62
30875;BME280;17581;43.222;27.924;2023-02-11T09:51:50;102495.25;;;4.93;44.53
30875;BME280;17581;43.222;27.924;2023-02-11T09:54:57;102484.56;;;4.95;45.03
30875;BME280;17581;43.222;27.924;2023-02-11T09:57:30;102466.53;;;5.03;44.97
30875;BME280;17581;43.222;27.924;2023-02-11T09:59:57;102465.09;;;5.21;45.22
30875;BME280;17581;43.222;27.924;2023-02-11T10:11:02;102450.72;;;5.82;43.68
30875;BME280;17581;43.222;27.924;2023-02-11T10:16:12;102446.06;;;5.90;43.22
30875;BME280;17581;43.222;27.924;2023-02-11T10:19:19;102432.94;;;6.09;42.98
30875;BME280;17581;43.222;27.924;2023-02-11T10:22:09;102417.63;;;6.14;42.53
30875;BME280;17581;43.222;27.924;2023-02-11T10:24:37;102425.47;;;6.18;42.85
30875;BME280;17581;43.222;27.924;2023-02-11T10:27:25;102403.66;;;6.30;42.59
30875;BME280;17581;43.222;27.924;2023-02-11T10:29:58;102375.34;;;6.26;41.85
30875;BME280;17581;43.222;27.924;2023-02-11T10:32:34;102418.25;;;6.46;41.75
30875;BME280;17581;43.222;27.924;2023-02-11T10:35:13;102417.75;;;6.60;41.56
30875;BME280;17581;43.222;27.924;2023-02-11T10:37:40;102417.88;;;6.57;40.93
30875;BME280;17581;43.222;27.924;2023-02-11T10:40:15;102403.75;;;6.53;40.90
30875;BME280;17581;43.222;27.924;2023-02-11T10:42:43;102402.09;;;6.49;40.92
30875;BME280;17581;43.222;27.924;2023-02-11T10:45:18;102399.41;;;6.49;41.42
30875;BME280;17581;43.222;27.924;2023-02-11T10:47:46;102354.44;;;6.37;41.32
30875;BME280;17581;43.222;27.924;2023-02-11T10:50:24;102400.72;;;6.63;41.03
30875;BME280;17581;43.222;27.924;2023-02-11T10:52:50;102388.50;;;6.55;41.33
30875;BME280;17581;43.222;27.924;2023-02-11T10:55:18;102353.19;;;6.47;41.35
30875;BME280;17581;43.222;27.924;2023-02-11T10:58:01;102374.88;;;6.63;41.36
30875;BME280;17581;43.222;27.924;2023-02-11T11:02:58;102342.50;;;6.47;41.53
30875;BME280;17581;43.222;27.924;2023-02-11T11:05:33;102359.44;;;6.70;41.18
30875;BME280;17581;43.222;27.924;2023-02-11T11:08:06;102355.72;;;6.74;40.96
30875;BME280;17581;43.222;27.924;2023-02-11T11:10:35;102349.78;;;6.89;40.74
30875;BME280;17581;43.222;27.924;2023-02-11T11:13:01;102355.78;;;6.95;41.00
30875;BME280;17581;43.222;27.924;2023-02-11T11:15:28;102354.78;;;6.98;40.53
30875;BME280;17581;43.222;27.924;2023-02-11T11:18:16;102345.13;;;7.17;40.23
30875;BME280;17581;43.222;27.924;2023-02-11T11:20:56;102335.78;;;7.27;39.78
30875;BME280;17581;43.222;27.924;2023-02-11T11:23:23;102328.69;;;7.48;40.60
30875;BME280;17581;43.222;27.924;2023-02-11T11:26:11;102275.28;;;7.23;40.47
30875;BME280;17581;43.222;27.924;2023-02-11T11:28:59;102319.09;;;7.64;40.25
30875;BME280;17581;43.222;27.924;2023-02-11T11:33:53;102316.50;;;8.03;38.10
30875;BME280;17581;43.222;27.924;2023-02-11T11:36:22;102312.00;;;8.03;38.33
30875;BME280;17581;43.222;27.924;2023-02-11T11:38:53;102292.69;;;7.95;38.63
30875;BME280;17581;43.222;27.924;2023-02-11T11:41:26;102304.16;;;7.99;38.88
30875;BME280;17581;43.222;27.924;2023-02-11T11:46:41;102305.22;;;8.15;38.20
30875;BME280;17581;43.222;27.924;2023-02-11T11:49:34;102296.13;;;8.19;37.90
30875;BME280;17581;43.222;27.924;2023-02-11T11:54:53;102272.50;;;8.27;37.80
30875;BME280;17581;43.222;27.924;2023-02-11T11:57:24;102288.78;;;8.22;37.82
30875;BME280;17581;43.222;27.924;2023-02-11T11:59:50;102282.66;;;8.41;38.01
30875;BME280;17581;43.222;27.924;2023-02-11T12:05:06;102262.56;;;8.49;37.41
30875;BME280;17581;43.222;27.924;2023-02-11T12:07:49;102244.88;;;8.45;38.01
30875;BME280;17581;43.222;27.924;2023-02-11T12:10:22;102266.09;;;8.68;36.93
30875;BME280;17581;43.222;27.924;2023-02-11T12:24:45;102195.59;;;8.66;35.56
30875;BME280;17581;43.222;27.924;2023-02-11T12:30:31;102230.31;;;9.05;35.71
30875;BME280;17581;43.222;27.924;2023-02-11T12:41:33;102219.78;;;8.84;35.39
30875;BME280;17581;43.222;27.924;2023-02-11T12:50:00;102217.72;;;9.07;35.63
30875;BME280;17581;43.222;27.924;2023-02-11T12:55:06;102206.25;;;9.04;34.00
30875;BME280;17581;43.222;27.924;2023-02-11T12:57:36;102188.56;;;9.00;34.01
30875;BME280;17581;43.222;27.924;2023-02-11T13:05:33;102198.66;;;8.95;33.69
30875;BME280;17581;43.222;27.924;2023-02-11T13:08:13;102200.03;;;8.85;33.58
30875;BME280;17581;43.222;27.924;2023-02-11T13:10:42;102196.72;;;8.80;33.38
30875;BME280;17581;43.222;27.924;2023-02-11T13:13:22;102190.66;;;8.76;33.48
30875;BME280;17581;43.222;27.924;2023-02-11T13:15:53;102159.84;;;8.66;33.59
30875;BME280;17581;43.222;27.924;2023-02-11T13:24:06;102178.13;;;8.94;33.87
30875;BME280;17581;43.222;27.924;2023-02-11T13:26:41;102140.34;;;8.62;33.45
30875;BME280;17581;43.222;27.924;2023-02-11T13:29:38;102138.84;;;8.57;33.47
30875;BME280;17581;43.222;27.924;2023-02-11T13:32:12;102180.19;;;8.89;32.93
30875;BME280;17581;43.222;27.924;2023-02-11T13:40:05;102170.34;;;8.70;33.04
30875;BME280;17581;43.222;27.924;2023-02-11T13:48:04;102182.41;;;8.43;32.92
30875;BME280;17581;43.222;27.924;2023-02-11T13:50:38;102176.25;;;8.41;33.25
30875;BME280;17581;43.222;27.924;2023-02-11T13:53:10;102174.44;;;8.42;32.99
30875;BME280;17581;43.222;27.924;2023-02-11T13:55:44;102164.00;;;8.36;33.22
30875;BME280;17581;43.222;27.924;2023-02-11T14:22:28;102146.66;;;8.24;33.79
30875;BME280;17581;43.222;27.924;2023-02-11T14:25:00;102119.00;;;8.05;33.57
30875;BME280;17581;43.222;27.924;2023-02-11T14:27:41;102139.84;;;8.17;34.26
30875;BME280;17581;43.222;27.924;2023-02-11T14:35:40;102135.59;;;8.13;34.64
30875;BME280;17581;43.222;27.924;2023-02-11T14:38:25;102130.78;;;8.19;35.19
30875;BME280;17581;43.222;27.924;2023-02-11T14:41:22;102117.25;;;8.22;35.39
30875;BME280;17581;43.222;27.924;2023-02-11T14:43:56;102118.69;;;8.11;38.92
30875;BME280;17581;43.222;27.924;2023-02-11T14:46:23;102137.00;;;8.01;40.26
30875;BME280;17581;43.222;27.924;2023-02-11T14:48:53;102118.78;;;7.91;40.16
30875;BME280;17581;43.222;27.924;2023-02-11T14:51:25;102127.88;;;7.87;41.22
30875;BME280;17581;43.222;27.924;2023-02-11T14:53:53;102129.28;;;7.77;41.49
30875;BME280;17581;43.222;27.924;2023-02-11T14:56:24;102125.47;;;7.62;42.18
30875;BME280;17581;43.222;27.924;2023-02-11T14:58:56;102123.63;;;7.44;43.77
30875;BME280;17581;43.222;27.924;2023-02-11T15:01:31;102125.16;;;7.29;43.96
30875;BME280;17581;43.222;27.924;2023-02-11T15:03:58;102125.56;;;7.20;44.50
30875;BME280;17581;43.222;27.924;2023-02-11T15:06:30;102119.00;;;7.07;45.79
30875;BME280;17581;43.222;27.924;2023-02-11T15:09:00;102120.75;;;6.88;46.42
30875;BME280;17581;43.222;27.924;2023-02-11T15:11:30;102098.56;;;6.64;46.87
30875;BME280;17581;43.222;27.924;2023-02-11T15:13:57;102110.22;;;6.83;47.04
30875;BME280;17581;43.222;27.924;2023-02-11T15:16:26;102103.97;;;6.63;47.66
30875;BME280;17581;43.222;27.924;2023-02-11T15:19:00;102105.81;;;6.82;48.07
30875;BME280;17581;43.222;27.924;2023-02-11T15:21:29;102114.56;;;6.86;48.38
30875;BME280;17581;43.222;27.924;2023-02-11T15:23:59;102114.56;;;6.86;48.51
30875;BME280;17581;43.222;27.924;2023-02-11T15:26:25;102097.06;;;6.79;49.01
30875;BME280;17581;43.222;27.924;2023-02-11T15:28:51;102098.25;;;6.72;48.94
30875;BME280;17581;43.222;27.924;2023-02-11T15:31:21;102108.94;;;6.72;49.35
30875;BME280;17581;43.222;27.924;2023-02-11T15:33:48;102116.97;;;6.72;49.88
30875;BME280;17581;43.222;27.924;2023-02-11T15:36:14;102072.34;;;6.30;50.46
30875;BME280;17581;43.222;27.924;2023-02-11T15:38:40;102120.41;;;6.53;50.75